Kedves Pilóták, Oktatók, Növendékek!

Az alábbi menüpontban szeretnénk összefoglalni néhány fontos és hasznos információt, linket, amely segíthet a repülések megtervezésében.

Ha bármilyen javaslatod van a tartalommal kapcsolatban, kérlek Ez az e-mail-cím a szpemrobotok elleni védelem alatt áll. Megtekintéséhez engedélyeznie kell a JavaScript használatát.meg nekünk.

 

Jó leszállást!

Repüléssel kapcsolatos hírek

2019. augusztus 20.

IHO.hu - - Repülés RSS

Felhőkép 

Felhőkép

Széltérkép

Széltérkép

Győr-Pér Repülőtér

Élő webkamera kép

 Nagyobb kép

Győr-Pér Repülőtér

[Source: ADDS]
METAR
LHPR 202245Z AUTO 10004KT 060V140 CAVOK 20/17 Q1017 =
LHPR 201715Z 2018/2103 VRB02KT CAVOK BECMG 2100/2103 32014G28KT 9999 SCT035 BKN080
TAF
LHPR 201715Z 2018/2103 VRB02KT CAVOK BECMG 2100/2103 32014G28KT 9999 SCT035 BKN080 =
SR / SS: 03:52 / 17:51 UTC (Napkelte / Napnyugta 2019-08-21)

Kapcsolat

Telephely:     9099 Pér, Repülõtér

Klubhelyiség: 9021 Gyõr, Városház tér 3.

E-mail: info@aeroclub-gyor.hu

Telefon: 06-20-777-9106

Adószám: 19113832-2-08

  
Joomla űrlapépítő by JoomlaShine
JSN Metro template designed by JoomlaShine.com